N55JG KCPK-KFFA
Flight info
| Callsign | N55JG |
|---|---|
| Flight time | 0h 35m |
| Altitude | 5500 |
| Route | YELUS |
| Aircraft | C172/L-SFG/C |
Departure
| Time | 2026-05-06 22:56 |
|---|---|
| Airport | Chesapeake Regional Airport (KCPK) |
Arrival
| Time | 2026-05-06 23:31 |
|---|---|
| Airport | First Flight Airport (KFFA) |
| Time | Latitude | Longitude | Altitude | Speed | Heading |
|---|---|---|---|---|---|
| 2026-05-06 22:47 | 36.66555 | -76.32383 | 24 ft | 0 kts | 313° |
| 2026-05-06 22:51 | 36.66598 | -76.32363 | 24 ft | 15 kts | 68° |
| 2026-05-06 22:51 | 36.66586 | -76.32233 | 24 ft | 13 kts | 88° |
| 2026-05-06 22:51 | 36.66643 | -76.32163 | 24 ft | 11 kts | 34° |
| 2026-05-06 22:51 | 36.66701 | -76.32109 | 24 ft | 11 kts | 37° |
| 2026-05-06 22:52 | 36.66763 | -76.32050 | 24 ft | 10 kts | 36° |
| 2026-05-06 22:52 | 36.66818 | -76.31999 | 25 ft | 11 kts | 32° |
| 2026-05-06 22:52 | 36.66907 | -76.31915 | 25 ft | 18 kts | 37° |
| 2026-05-06 22:52 | 36.67004 | -76.31826 | 25 ft | 16 kts | 36° |
| 2026-05-06 22:53 | 36.67087 | -76.31750 | 25 ft | 14 kts | 37° |
| 2026-05-06 22:53 | 36.67160 | -76.31682 | 25 ft | 12 kts | 36° |
| 2026-05-06 22:53 | 36.67219 | -76.31614 | 25 ft | 10 kts | 85° |
| 2026-05-06 22:53 | 36.67210 | -76.31583 | 25 ft | 0 kts | 128° |
| 2026-05-06 22:54 | 36.67191 | -76.31556 | 26 ft | 10 kts | 141° |
| 2026-05-06 22:55 | 36.67138 | -76.31545 | 26 ft | 6 kts | 204° |
| 2026-05-06 22:55 | 36.67079 | -76.31589 | 26 ft | 18 kts | 218° |
| 2026-05-06 22:55 | 36.66842 | -76.31814 | 27 ft | 65 kts | 216° |
| 2026-05-06 22:55 | 36.66429 | -76.32208 | 179 ft | 77 kts | 221° |
| 2026-05-06 22:56 | 36.66021 | -76.32624 | 374 ft | 77 kts | 215° |
| 2026-05-06 22:56 | 36.65595 | -76.32931 | 623 ft | 65 kts | 198° |
| 2026-05-06 22:56 | 36.65153 | -76.32862 | 826 ft | 69 kts | 175° |
| 2026-05-06 22:56 | 36.64667 | -76.32692 | 919 ft | 70 kts | 179° |
| 2026-05-06 22:57 | 36.64196 | -76.32553 | 1151 ft | 72 kts | 178° |
| 2026-05-06 22:57 | 36.63725 | -76.32340 | 1361 ft | 75 kts | 165° |
| 2026-05-06 22:57 | 36.63418 | -76.31741 | 1553 ft | 95 kts | 118° |
| 2026-05-06 22:57 | 36.63253 | -76.30961 | 1831 ft | 91 kts | 118° |
| 2026-05-06 22:58 | 36.63110 | -76.30189 | 2053 ft | 94 kts | 113° |
| 2026-05-06 22:58 | 36.62978 | -76.29393 | 2286 ft | 95 kts | 114° |
| 2026-05-06 22:58 | 36.62827 | -76.28593 | 2516 ft | 94 kts | 117° |
| 2026-05-06 22:58 | 36.62681 | -76.27809 | 2754 ft | 93 kts | 116° |
| 2026-05-06 22:59 | 36.62550 | -76.27004 | 2917 ft | 95 kts | 122° |
| 2026-05-06 22:59 | 36.62305 | -76.26260 | 3043 ft | 92 kts | 140° |
| 2026-05-06 22:59 | 36.61976 | -76.25618 | 3255 ft | 82 kts | 149° |
| 2026-05-06 22:59 | 36.61635 | -76.25064 | 3408 ft | 82 kts | 153° |
| 2026-05-06 23:00 | 36.61252 | -76.24576 | 3599 ft | 76 kts | 161° |
| 2026-05-06 23:00 | 36.60834 | -76.24152 | 3749 ft | 80 kts | 165° |
| 2026-05-06 23:00 | 36.60401 | -76.23754 | 3969 ft | 74 kts | 168° |
| 2026-05-06 23:00 | 36.59965 | -76.23382 | 4141 ft | 75 kts | 170° |
| 2026-05-06 23:01 | 36.59530 | -76.23020 | 4311 ft | 77 kts | 170° |
| 2026-05-06 23:01 | 36.59077 | -76.22662 | 4474 ft | 78 kts | 168° |
| 2026-05-06 23:01 | 36.58667 | -76.22200 | 4669 ft | 78 kts | 161° |
| 2026-05-06 23:01 | 36.58279 | -76.21739 | 4822 ft | 74 kts | 164° |
| 2026-05-06 23:02 | 36.57881 | -76.21318 | 4904 ft | 79 kts | 166° |
| 2026-05-06 23:02 | 36.57434 | -76.20898 | 5003 ft | 82 kts | 165° |
| 2026-05-06 23:02 | 36.56982 | -76.20442 | 5120 ft | 83 kts | 163° |
| 2026-05-06 23:02 | 36.56551 | -76.19969 | 5239 ft | 85 kts | 160° |
| 2026-05-06 23:03 | 36.56105 | -76.19478 | 5369 ft | 85 kts | 161° |
| 2026-05-06 23:03 | 36.55646 | -76.18983 | 5462 ft | 87 kts | 162° |
| 2026-05-06 23:03 | 36.55160 | -76.18479 | 5519 ft | 94 kts | 161° |
| 2026-05-06 23:03 | 36.54629 | -76.17945 | 5526 ft | 102 kts | 160° |
| 2026-05-06 23:04 | 36.54061 | -76.17403 | 5534 ft | 106 kts | 163° |
| 2026-05-06 23:04 | 36.53462 | -76.16836 | 5525 ft | 111 kts | 159° |
| 2026-05-06 23:04 | 36.52857 | -76.16220 | 5522 ft | 113 kts | 158° |
| 2026-05-06 23:04 | 36.52252 | -76.15588 | 5521 ft | 113 kts | 157° |
| 2026-05-06 23:05 | 36.51652 | -76.14952 | 5521 ft | 113 kts | 156° |
| 2026-05-06 23:05 | 36.51056 | -76.14320 | 5518 ft | 113 kts | 158° |
| 2026-05-06 23:05 | 36.50462 | -76.13691 | 5517 ft | 114 kts | 157° |
| 2026-05-06 23:05 | 36.49855 | -76.13045 | 5518 ft | 115 kts | 157° |
| 2026-05-06 23:06 | 36.49244 | -76.12397 | 5520 ft | 115 kts | 156° |
| 2026-05-06 23:06 | 36.48635 | -76.11748 | 5520 ft | 115 kts | 156° |
| 2026-05-06 23:06 | 36.48030 | -76.11102 | 5516 ft | 113 kts | 157° |
| 2026-05-06 23:06 | 36.47434 | -76.10468 | 5514 ft | 112 kts | 158° |
| 2026-05-06 23:07 | 36.46846 | -76.09844 | 5510 ft | 111 kts | 158° |
| 2026-05-06 23:07 | 36.46269 | -76.09232 | 5508 ft | 110 kts | 158° |
| 2026-05-06 23:07 | 36.45686 | -76.08613 | 5506 ft | 110 kts | 158° |
| 2026-05-06 23:07 | 36.45100 | -76.07990 | 5506 ft | 111 kts | 157° |
| 2026-05-06 23:08 | 36.44520 | -76.07375 | 5508 ft | 111 kts | 156° |
| 2026-05-06 23:08 | 36.43929 | -76.06747 | 5509 ft | 111 kts | 157° |
| 2026-05-06 23:08 | 36.43343 | -76.06125 | 5510 ft | 111 kts | 157° |
| 2026-05-06 23:08 | 36.42755 | -76.05501 | 5508 ft | 111 kts | 157° |
| 2026-05-06 23:09 | 36.42167 | -76.04877 | 5506 ft | 111 kts | 157° |
| 2026-05-06 23:09 | 36.41589 | -76.04264 | 5505 ft | 111 kts | 157° |
| 2026-05-06 23:09 | 36.40999 | -76.03639 | 5487 ft | 111 kts | 152° |
| 2026-05-06 23:09 | 36.40418 | -76.03020 | 5501 ft | 109 kts | 154° |
| 2026-05-06 23:10 | 36.39833 | -76.02402 | 5507 ft | 112 kts | 154° |
| 2026-05-06 23:10 | 36.39243 | -76.01778 | 5510 ft | 114 kts | 153° |
| 2026-05-06 23:10 | 36.38638 | -76.01138 | 5512 ft | 115 kts | 153° |
| 2026-05-06 23:10 | 36.38030 | -76.00493 | 5512 ft | 115 kts | 153° |
| 2026-05-06 23:11 | 36.37423 | -75.99849 | 5511 ft | 114 kts | 154° |
| 2026-05-06 23:11 | 36.36819 | -75.99209 | 5508 ft | 113 kts | 154° |
| 2026-05-06 23:11 | 36.36229 | -75.98582 | 5503 ft | 112 kts | 154° |
| 2026-05-06 23:11 | 36.35637 | -75.97956 | 5500 ft | 111 kts | 153° |
| 2026-05-06 23:12 | 36.35046 | -75.97330 | 5503 ft | 111 kts | 153° |
| 2026-05-06 23:12 | 36.34460 | -75.96710 | 5500 ft | 110 kts | 154° |
| 2026-05-06 23:12 | 36.33875 | -75.96091 | 5500 ft | 110 kts | 154° |
| 2026-05-06 23:12 | 36.33291 | -75.95474 | 5499 ft | 110 kts | 154° |
| 2026-05-06 23:13 | 36.32717 | -75.94867 | 5506 ft | 110 kts | 155° |
| 2026-05-06 23:13 | 36.32123 | -75.94241 | 5510 ft | 112 kts | 155° |
| 2026-05-06 23:13 | 36.31522 | -75.93606 | 5531 ft | 114 kts | 154° |
| 2026-05-06 23:13 | 36.30923 | -75.92972 | 5534 ft | 114 kts | 154° |
| 2026-05-06 23:14 | 36.30316 | -75.92331 | 5521 ft | 116 kts | 153° |
| 2026-05-06 23:14 | 36.29705 | -75.91685 | 5522 ft | 114 kts | 153° |
| 2026-05-06 23:14 | 36.29101 | -75.91047 | 5520 ft | 114 kts | 153° |
| 2026-05-06 23:14 | 36.28495 | -75.90407 | 5518 ft | 114 kts | 153° |
| 2026-05-06 23:15 | 36.27891 | -75.89769 | 5516 ft | 114 kts | 154° |
| 2026-05-06 23:15 | 36.27296 | -75.89141 | 5513 ft | 113 kts | 154° |
| 2026-05-06 23:15 | 36.26697 | -75.88507 | 5512 ft | 113 kts | 154° |
| 2026-05-06 23:15 | 36.26099 | -75.87877 | 5509 ft | 113 kts | 154° |
| 2026-05-06 23:16 | 36.25499 | -75.87245 | 5506 ft | 112 kts | 154° |
| 2026-05-06 23:16 | 36.24904 | -75.86617 | 5508 ft | 113 kts | 154° |
| 2026-05-06 23:16 | 36.24308 | -75.85990 | 5509 ft | 114 kts | 154° |
| 2026-05-06 23:16 | 36.23702 | -75.85350 | 5511 ft | 115 kts | 154° |
| 2026-05-06 23:17 | 36.23091 | -75.84706 | 5513 ft | 115 kts | 154° |
| 2026-05-06 23:17 | 36.22478 | -75.84061 | 5513 ft | 116 kts | 154° |
| 2026-05-06 23:17 | 36.21861 | -75.83412 | 5513 ft | 116 kts | 153° |
| 2026-05-06 23:17 | 36.21248 | -75.82766 | 5512 ft | 117 kts | 153° |
| 2026-05-06 23:18 | 36.20627 | -75.82111 | 5509 ft | 117 kts | 153° |
| 2026-05-06 23:18 | 36.20004 | -75.81456 | 5509 ft | 116 kts | 155° |
| 2026-05-06 23:18 | 36.19359 | -75.80925 | 5507 ft | 111 kts | 161° |
| 2026-05-06 23:18 | 36.18718 | -75.80395 | 5488 ft | 108 kts | 159° |
| 2026-05-06 23:19 | 36.18097 | -75.79837 | 5210 ft | 111 kts | 160° |
| 2026-05-06 23:19 | 36.17459 | -75.79309 | 4985 ft | 108 kts | 159° |
| 2026-05-06 23:19 | 36.16857 | -75.78813 | 4811 ft | 100 kts | 165° |
| 2026-05-06 23:19 | 36.16275 | -75.78392 | 4672 ft | 93 kts | 163° |
| 2026-05-06 23:20 | 36.15751 | -75.77936 | 4497 ft | 98 kts | 160° |
| 2026-05-06 23:20 | 36.15169 | -75.77401 | 4261 ft | 108 kts | 159° |
| 2026-05-06 23:20 | 36.14557 | -75.76874 | 4105 ft | 107 kts | 159° |
| 2026-05-06 23:20 | 36.13945 | -75.76352 | 3946 ft | 106 kts | 161° |
| 2026-05-06 23:21 | 36.13332 | -75.75850 | 3802 ft | 103 kts | 163° |
| 2026-05-06 23:21 | 36.12731 | -75.75407 | 3657 ft | 101 kts | 164° |
| 2026-05-06 23:21 | 36.12125 | -75.74958 | 3512 ft | 100 kts | 163° |
| 2026-05-06 23:21 | 36.11530 | -75.74502 | 3362 ft | 101 kts | 162° |
| 2026-05-06 23:22 | 36.10932 | -75.74067 | 3214 ft | 98 kts | 167° |
| 2026-05-06 23:22 | 36.10326 | -75.73681 | 3061 ft | 97 kts | 168° |
| 2026-05-06 23:22 | 36.09749 | -75.73268 | 2888 ft | 98 kts | 166° |
| 2026-05-06 23:22 | 36.09174 | -75.72835 | 2709 ft | 93 kts | 172° |
| 2026-05-06 23:23 | 36.08587 | -75.72549 | 2530 ft | 89 kts | 177° |
| 2026-05-06 23:23 | 36.08005 | -75.72298 | 2354 ft | 89 kts | 179° |
| 2026-05-06 23:23 | 36.07421 | -75.72040 | 2228 ft | 88 kts | 176° |
| 2026-05-06 23:23 | 36.06854 | -75.71769 | 2086 ft | 87 kts | 176° |
| 2026-05-06 23:24 | 36.06303 | -75.71441 | 1984 ft | 93 kts | 171° |
| 2026-05-06 23:24 | 36.05730 | -75.71050 | 1963 ft | 91 kts | 172° |
| 2026-05-06 23:24 | 36.05183 | -75.70698 | 1972 ft | 87 kts | 173° |
| 2026-05-06 23:24 | 36.04649 | -75.70361 | 1985 ft | 84 kts | 174° |
| 2026-05-06 23:25 | 36.04119 | -75.70020 | 1974 ft | 87 kts | 174° |
| 2026-05-06 23:25 | 36.03578 | -75.69692 | 1991 ft | 86 kts | 173° |
| 2026-05-06 23:25 | 36.03044 | -75.69305 | 2001 ft | 91 kts | 167° |
| 2026-05-06 23:25 | 36.02554 | -75.68762 | 2064 ft | 104 kts | 144° |
| 2026-05-06 23:26 | 36.02198 | -75.67912 | 2067 ft | 115 kts | 133° |
| 2026-05-06 23:26 | 36.01961 | -75.66932 | 2114 ft | 122 kts | 117° |
| 2026-05-06 23:26 | 36.01784 | -75.65922 | 2040 ft | 125 kts | 119° |
| 2026-05-06 23:26 | 36.01632 | -75.64831 | 1846 ft | 130 kts | 111° |
| 2026-05-06 23:27 | 36.01495 | -75.63754 | 1655 ft | 118 kts | 127° |
| 2026-05-06 23:27 | 36.01068 | -75.63087 | 1445 ft | 85 kts | 173° |
| 2026-05-06 23:27 | 36.00553 | -75.63017 | 1229 ft | 69 kts | 205° |
| 2026-05-06 23:27 | 36.00221 | -75.63368 | 1093 ft | 63 kts | 239° |
| 2026-05-06 23:28 | 36.00176 | -75.63945 | 1002 ft | 78 kts | 264° |
| 2026-05-06 23:28 | 36.00453 | -75.64577 | 1014 ft | 97 kts | 303° |
| 2026-05-06 23:28 | 36.01113 | -75.64975 | 1010 ft | 113 kts | 333° |
| 2026-05-06 23:28 | 36.01928 | -75.64911 | 991 ft | 120 kts | 14° |
| 2026-05-06 23:29 | 36.02691 | -75.64563 | 861 ft | 114 kts | 13° |
| 2026-05-06 23:29 | 36.03419 | -75.64276 | 728 ft | 109 kts | 1° |
| 2026-05-06 23:29 | 36.04013 | -75.64594 | 669 ft | 85 kts | 285° |
| 2026-05-06 23:29 | 36.04260 | -75.65246 | 560 ft | 81 kts | 279° |
| 2026-05-06 23:30 | 36.04440 | -75.65891 | 378 ft | 81 kts | 266° |
| 2026-05-06 23:30 | 36.04191 | -75.66439 | 294 ft | 75 kts | 196° |
| 2026-05-06 23:30 | 36.03698 | -75.66547 | 377 ft | 67 kts | 194° |
| 2026-05-06 23:30 | 36.03249 | -75.66694 | 297 ft | 64 kts | 194° |
| 2026-05-06 23:31 | 36.02850 | -75.66801 | 259 ft | 60 kts | 197° |
| 2026-05-06 23:31 | 36.02442 | -75.66931 | 153 ft | 63 kts | 196° |
| 2026-05-06 23:31 | 36.02017 | -75.67076 | 30 ft | 61 kts | 197° |
| 2026-05-06 23:31 | 36.01665 | -75.67190 | 16 ft | 41 kts | 194° |
| 2026-05-06 23:32 | 36.01494 | -75.67247 | 16 ft | 10 kts | 178° |
| 2026-05-06 23:32 | 36.01459 | -75.67198 | 18 ft | 7 kts | 136° |
| 2026-05-06 23:32 | 36.01431 | -75.67194 | 18 ft | 6 kts | 148° |
| 2026-05-06 23:32 | 36.01439 | -75.67175 | 18 ft | 3 kts | 329° |
| 2026-05-06 23:33 | 36.01446 | -75.67179 | 18 ft | 0 kts | 354° |